sensor_id;sensor_type;location;lat;lon;timestamp;temperature;humidity
10306;DHT22;5198;52.382;9.020;2022-09-09T00:00:37;16.00;99.90
10306;DHT22;5198;52.382;9.020;2022-09-09T00:04:41;16.00;99.90
10306;DHT22;5198;52.382;9.020;2022-09-09T00:08:50;15.90;99.90
10306;DHT22;5198;52.382;9.020;2022-09-09T00:12:57;15.90;99.90
10306;DHT22;5198;52.382;9.020;2022-09-09T00:17:04;15.80;99.90
10306;DHT22;5198;52.382;9.020;2022-09-09T00:21:10;15.80;99.90
10306;DHT22;5198;52.382;9.020;2022-09-09T00:25:19;15.70;99.90
10306;DHT22;5198;52.382;9.020;2022-09-09T00:29:26;15.70;99.90
10306;DHT22;5198;52.382;9.020;2022-09-09T00:33:32;15.70;99.90
10306;DHT22;5198;52.382;9.020;2022-09-09T00:37:36;15.70;99.90
10306;DHT22;5198;52.382;9.020;2022-09-09T00:41:46;15.70;99.90
10306;DHT22;5198;52.382;9.020;2022-09-09T00:50:26;15.60;99.90
10306;DHT22;5198;52.382;9.020;2022-09-09T00:54:34;15.60;99.90
10306;DHT22;5198;52.382;9.020;2022-09-09T00:58:43;15.50;99.90
10306;DHT22;5198;52.382;9.020;2022-09-09T01:07:18;15.50;99.90
10306;DHT22;5198;52.382;9.020;2022-09-09T01:11:22;15.50;99.90
10306;DHT22;5198;52.382;9.020;2022-09-09T01:15:27;15.50;99.90
10306;DHT22;5198;52.382;9.020;2022-09-09T01:19:34;15.40;99.90
10306;DHT22;5198;52.382;9.020;2022-09-09T01:28:00;15.40;99.90
10306;DHT22;5198;52.382;9.020;2022-09-09T01:36:29;15.40;99.90
10306;DHT22;5198;52.382;9.020;2022-09-09T01:40:34;15.40;99.90
10306;DHT22;5198;52.382;9.020;2022-09-09T01:44:39;15.40;99.90
10306;DHT22;5198;52.382;9.020;2022-09-09T01:48:42;15.40;99.90
10306;DHT22;5198;52.382;9.020;2022-09-09T01:52:46;15.40;99.90
10306;DHT22;5198;52.382;9.020;2022-09-09T01:56:52;15.40;99.90
10306;DHT22;5198;52.382;9.020;2022-09-09T02:01:00;15.40;99.90
10306;DHT22;5198;52.382;9.020;2022-09-09T02:05:07;15.30;99.90
10306;DHT22;5198;52.382;9.020;2022-09-09T02:09:14;15.30;99.90
10306;DHT22;5198;52.382;9.020;2022-09-09T02:13:20;15.30;99.90
10306;DHT22;5198;52.382;9.020;2022-09-09T02:17:26;15.30;99.90
10306;DHT22;5198;52.382;9.020;2022-09-09T02:21:30;15.30;99.90
10306;DHT22;5198;52.382;9.020;2022-09-09T02:25:36;15.20;99.90
10306;DHT22;5198;52.382;9.020;2022-09-09T02:29:40;15.20;99.90
10306;DHT22;5198;52.382;9.020;2022-09-09T02:33:45;15.20;99.90
10306;DHT22;5198;52.382;9.020;2022-09-09T02:37:51;15.20;99.90
10306;DHT22;5198;52.382;9.020;2022-09-09T02:41:55;15.20;99.90
10306;DHT22;5198;52.382;9.020;2022-09-09T02:46:02;15.20;99.90
10306;DHT22;5198;52.382;9.020;2022-09-09T02:50:10;15.20;99.90
10306;DHT22;5198;52.382;9.020;2022-09-09T02:54:16;15.30;99.90
10306;DHT22;5198;52.382;9.020;2022-09-09T02:58:20;15.30;99.90
10306;DHT22;5198;52.382;9.020;2022-09-09T03:02:24;15.30;99.90
10306;DHT22;5198;52.382;9.020;2022-09-09T03:06:28;15.30;99.90
10306;DHT22;5198;52.382;9.020;2022-09-09T03:10:31;15.30;99.90
10306;DHT22;5198;52.382;9.020;2022-09-09T03:14:34;15.40;99.90
10306;DHT22;5198;52.382;9.020;2022-09-09T03:18:37;15.40;99.90
10306;DHT22;5198;52.382;9.020;2022-09-09T03:22:41;15.40;99.90
10306;DHT22;5198;52.382;9.020;2022-09-09T03:26:46;15.50;99.90
10306;DHT22;5198;52.382;9.020;2022-09-09T03:30:49;15.50;99.90
10306;DHT22;5198;52.382;9.020;2022-09-09T03:34:52;15.60;99.90
10306;DHT22;5198;52.382;9.020;2022-09-09T03:38:56;15.60;99.90
10306;DHT22;5198;52.382;9.020;2022-09-09T03:42:59;15.60;99.90
10306;DHT22;5198;52.382;9.020;2022-09-09T03:47:02;15.60;99.90
10306;DHT22;5198;52.382;9.020;2022-09-09T03:51:05;15.60;99.90
10306;DHT22;5198;52.382;9.020;2022-09-09T03:55:09;15.60;99.90
10306;DHT22;5198;52.382;9.020;2022-09-09T03:59:12;15.60;99.90
10306;DHT22;5198;52.382;9.020;2022-09-09T04:03:15;15.60;99.90
10306;DHT22;5198;52.382;9.020;2022-09-09T04:07:18;15.60;99.90
10306;DHT22;5198;52.382;9.020;2022-09-09T04:11:22;15.70;99.90
10306;DHT22;5198;52.382;9.020;2022-09-09T04:15:25;15.70;99.90
10306;DHT22;5198;52.382;9.020;2022-09-09T04:19:29;15.70;99.90
10306;DHT22;5198;52.382;9.020;2022-09-09T04:23:32;15.70;99.90
10306;DHT22;5198;52.382;9.020;2022-09-09T04:27:37;15.80;99.90
10306;DHT22;5198;52.382;9.020;2022-09-09T04:31:40;15.80;99.90
10306;DHT22;5198;52.382;9.020;2022-09-09T04:35:43;15.80;99.90
10306;DHT22;5198;52.382;9.020;2022-09-09T04:39:46;15.80;99.90
10306;DHT22;5198;52.382;9.020;2022-09-09T04:43:51;15.80;99.90
10306;DHT22;5198;52.382;9.020;2022-09-09T04:47:55;15.70;99.90
10306;DHT22;5198;52.382;9.020;2022-09-09T04:51:57;15.70;99.90
10306;DHT22;5198;52.382;9.020;2022-09-09T04:56:01;15.70;99.90
10306;DHT22;5198;52.382;9.020;2022-09-09T05:00:06;15.70;99.90
10306;DHT22;5198;52.382;9.020;2022-09-09T05:04:09;15.70;99.90
10306;DHT22;5198;52.382;9.020;2022-09-09T05:08:12;15.70;99.90
10306;DHT22;5198;52.382;9.020;2022-09-09T05:12:15;15.70;99.90
10306;DHT22;5198;52.382;9.020;2022-09-09T05:16:20;15.70;99.90
10306;DHT22;5198;52.382;9.020;2022-09-09T05:20:24;15.70;99.90
10306;DHT22;5198;52.382;9.020;2022-09-09T05:24:27;15.70;99.90
10306;DHT22;5198;52.382;9.020;2022-09-09T05:28:30;15.70;99.90
10306;DHT22;5198;52.382;9.020;2022-09-09T05:32:35;15.70;99.90
10306;DHT22;5198;52.382;9.020;2022-09-09T05:36:38;15.70;99.90
10306;DHT22;5198;52.382;9.020;2022-09-09T05:40:46;15.70;99.90
10306;DHT22;5198;52.382;9.020;2022-09-09T05:44:49;15.70;99.90
10306;DHT22;5198;52.382;9.020;2022-09-09T05:48:53;15.80;99.90
10306;DHT22;5198;52.382;9.020;2022-09-09T05:52:56;15.80;99.90
10306;DHT22;5198;52.382;9.020;2022-09-09T05:56:59;15.90;99.90
10306;DHT22;5198;52.382;9.020;2022-09-09T06:01:03;15.90;99.90
10306;DHT22;5198;52.382;9.020;2022-09-09T22:35:59;17.00;99.90
10306;DHT22;5198;52.382;9.020;2022-09-09T22:40:02;16.80;99.90
10306;DHT22;5198;52.382;9.020;2022-09-09T22:44:06;16.80;99.90
10306;DHT22;5198;52.382;9.020;2022-09-09T22:48:08;16.80;99.90
10306;DHT22;5198;52.382;9.020;2022-09-09T22:52:13;16.80;99.90
10306;DHT22;5198;52.382;9.020;2022-09-09T22:56:17;16.70;99.90
10306;DHT22;5198;52.382;9.020;2022-09-09T23:00:20;16.70;99.90
10306;DHT22;5198;52.382;9.020;2022-09-09T23:04:23;16.70;99.90
10306;DHT22;5198;52.382;9.020;2022-09-09T23:08:29;16.70;99.90
10306;DHT22;5198;52.382;9.020;2022-09-09T23:12:33;16.70;99.90
10306;DHT22;5198;52.382;9.020;2022-09-09T23:16:37;16.70;99.90
10306;DHT22;5198;52.382;9.020;2022-09-09T23:20:40;16.70;99.90
10306;DHT22;5198;52.382;9.020;2022-09-09T23:24:45;16.70;99.90
10306;DHT22;5198;52.382;9.020;2022-09-09T23:28:48;16.70;99.90
10306;DHT22;5198;52.382;9.020;2022-09-09T23:32:51;16.70;99.90
10306;DHT22;5198;52.382;9.020;2022-09-09T23:36:54;16.70;99.90
10306;DHT22;5198;52.382;9.020;2022-09-09T23:41:00;16.70;99.90
10306;DHT22;5198;52.382;9.020;2022-09-09T23:45:03;16.70;99.90
10306;DHT22;5198;52.382;9.020;2022-09-09T23:49:07;16.70;99.90
10306;DHT22;5198;52.382;9.020;2022-09-09T23:53:10;16.70;99.90
10306;DHT22;5198;52.382;9.020;2022-09-09T23:57:15;16.70;99.90
